メインページ
METAR-TAF:

METAR-TAF

空港 :

NWS Office

ポンペイ島, ミクロネシア

緯度: 06-58N, 経度: 158-13E, 海抜: 39m

現時点の気象観測

当レポートは25分前の23:52(UTC)に作成
西/北西の風 3kt
気温 33°C
湿度 63%
気圧 1011 hPa
視程: 24.1km
高度1800ftの雲はほとんどない
高度13000ftの雲は散在している
高度30000ftの千切れ雲あり

METAR: PTTP 202352Z 29003KT 15SM FEW018 SCT130 BKN300 33/25 A2986 RMK SLP110 60000 8/171 T03250249 10325 20239 58005

時間: 11:17 (00:17 UTC)


TAF: 見つかりません

4,000以上の空港の気象観測と天気予報(METAR報とTAF報)

利用可能な観測所は地図上に黄色い丸と赤い丸で示す。

丸の上にカーソルを重ねると観測所名を参照できる。

次にクリックすると気象観測と天気予報を参照できる。

マップの切り替え:黒色「×」印の緑ボタンをクリックして拡大、「-」印の緑ボタンをクリックして縮小、緑色の三角印をクリックして隣りの地図に切り替え


METAR-TAF: